sensor_id;sensor_type;location;lat;lon;timestamp;pressure;altitude;pressure_sealevel;temperature;humidity
72110;BME280;59983;52.010;5.420;2023-05-01T00:01:25;101850.22;;;11.56;76.53
72110;BME280;59983;52.010;5.420;2023-05-01T00:03:52;101849.59;;;11.51;77.12
72110;BME280;59983;52.010;5.420;2023-05-01T00:06:20;101854.03;;;11.55;77.15
72110;BME280;59983;52.010;5.420;2023-05-01T00:08:46;101849.25;;;11.61;77.54
72110;BME280;59983;52.010;5.420;2023-05-01T00:11:13;101844.09;;;11.68;77.40
72110;BME280;59983;52.010;5.420;2023-05-01T00:13:40;101841.38;;;11.68;77.17
72110;BME280;59983;52.010;5.420;2023-05-01T00:16:11;101833.84;;;11.65;77.59
72110;BME280;59983;52.010;5.420;2023-05-01T00:18:38;101839.28;;;11.65;77.13
72110;BME280;59983;52.010;5.420;2023-05-01T00:21:05;101826.03;;;11.63;77.58
72110;BME280;59983;52.010;5.420;2023-05-01T00:23:31;101821.13;;;11.57;77.47
72110;BME280;59983;52.010;5.420;2023-05-01T00:25:58;101821.31;;;11.52;77.83
72110;BME280;59983;52.010;5.420;2023-05-01T00:28:24;101815.22;;;11.55;77.64
72110;BME280;59983;52.010;5.420;2023-05-01T00:30:51;101813.28;;;11.55;77.57
72110;BME280;59983;52.010;5.420;2023-05-01T00:33:17;101814.63;;;11.49;77.83
72110;BME280;59983;52.010;5.420;2023-05-01T00:35:44;101809.22;;;11.41;77.20
72110;BME280;59983;52.010;5.420;2023-05-01T00:38:11;101806.69;;;11.35;77.64
72110;BME280;59983;52.010;5.420;2023-05-01T00:40:44;101805.75;;;11.31;77.81
72110;BME280;59983;52.010;5.420;2023-05-01T00:43:11;101796.28;;;11.38;77.71
72110;BME280;59983;52.010;5.420;2023-05-01T00:45:45;101795.94;;;11.39;77.96
72110;BME280;59983;52.010;5.420;2023-05-01T00:48:11;101791.63;;;11.38;77.47
72110;BME280;59983;52.010;5.420;2023-05-01T00:50:38;101788.97;;;11.29;77.80
72110;BME280;59983;52.010;5.420;2023-05-01T00:53:06;101778.44;;;11.28;77.75
72110;BME280;59983;52.010;5.420;2023-05-01T00:55:33;101773.50;;;11.21;77.82
72110;BME280;59983;52.010;5.420;2023-05-01T00:58:01;101774.66;;;11.12;78.17
72110;BME280;59983;52.010;5.420;2023-05-01T01:00:28;101767.97;;;11.09;78.36
72110;BME280;59983;52.010;5.420;2023-05-01T01:02:55;101777.41;;;11.03;78.68
72110;BME280;59983;52.010;5.420;2023-05-01T01:05:24;101771.50;;;11.01;78.92
72110;BME280;59983;52.010;5.420;2023-05-01T01:08:10;101762.19;;;11.11;77.56
72110;BME280;59983;52.010;5.420;2023-05-01T01:10:52;101768.00;;;11.00;78.26
72110;BME280;59983;52.010;5.420;2023-05-01T01:13:28;101754.88;;;11.02;78.44
72110;BME280;59983;52.010;5.420;2023-05-01T01:16:15;101751.72;;;11.00;78.86
72110;BME280;59983;52.010;5.420;2023-05-01T01:18:52;101745.16;;;11.01;78.61
72110;BME280;59983;52.010;5.420;2023-05-01T01:21:35;101747.41;;;10.99;78.21
72110;BME280;59983;52.010;5.420;2023-05-01T01:24:55;101735.78;;;10.90;78.59
72110;BME280;59983;52.010;5.420;2023-05-01T01:27:46;101740.88;;;10.92;79.00
72110;BME280;59983;52.010;5.420;2023-05-01T01:35:37;101728.44;;;10.91;79.32
72110;BME280;59983;52.010;5.420;2023-05-01T01:38:15;101724.59;;;10.92;79.34
72110;BME280;59983;52.010;5.420;2023-05-01T01:43:47;101718.19;;;10.96;79.25
72110;BME280;59983;52.010;5.420;2023-05-01T01:46:16;101712.44;;;10.98;79.66
72110;BME280;59983;52.010;5.420;2023-05-01T01:48:47;101704.44;;;11.01;78.87
72110;BME280;59983;52.010;5.420;2023-05-01T01:51:17;101706.31;;;11.10;79.00
72110;BME280;59983;52.010;5.420;2023-05-01T01:53:48;101701.38;;;11.03;79.38
72110;BME280;59983;52.010;5.420;2023-05-01T01:56:17;101697.06;;;11.02;78.88
72110;BME280;59983;52.010;5.420;2023-05-01T01:58:46;101683.38;;;10.98;79.07
72110;BME280;59983;52.010;5.420;2023-05-01T02:01:14;101686.09;;;10.98;79.08
72110;BME280;59983;52.010;5.420;2023-05-01T02:03:43;101686.41;;;10.97;78.93
72110;BME280;59983;52.010;5.420;2023-05-01T02:06:12;101674.78;;;10.96;79.11
72110;BME280;59983;52.010;5.420;2023-05-01T02:08:41;101680.03;;;10.93;79.48
72110;BME280;59983;52.010;5.420;2023-05-01T02:11:10;101673.34;;;10.90;78.98
72110;BME280;59983;52.010;5.420;2023-05-01T02:13:39;101673.53;;;10.85;78.85
72110;BME280;59983;52.010;5.420;2023-05-01T02:16:07;101668.72;;;10.91;78.86
72110;BME280;59983;52.010;5.420;2023-05-01T02:18:35;101675.09;;;10.86;78.77
72110;BME280;59983;52.010;5.420;2023-05-01T02:21:03;101672.34;;;10.95;78.65
72110;BME280;59983;52.010;5.420;2023-05-01T02:23:30;101670.94;;;10.97;78.94
72110;BME280;59983;52.010;5.420;2023-05-01T02:26:01;101663.88;;;11.05;78.37
72110;BME280;59983;52.010;5.420;2023-05-01T02:28:29;101663.06;;;11.04;78.39
72110;BME280;59983;52.010;5.420;2023-05-01T02:30:57;101654.94;;;11.04;78.44
72110;BME280;59983;52.010;5.420;2023-05-01T02:33:24;101651.38;;;11.04;78.42
72110;BME280;59983;52.010;5.420;2023-05-01T02:35:51;101652.38;;;10.99;78.15
72110;BME280;59983;52.010;5.420;2023-05-01T02:38:17;101644.72;;;11.01;78.18
72110;BME280;59983;52.010;5.420;2023-05-01T02:40:47;101647.56;;;11.05;78.40
72110;BME280;59983;52.010;5.420;2023-05-01T02:43:17;101646.91;;;11.08;78.29
72110;BME280;59983;52.010;5.420;2023-05-01T02:45:46;101652.53;;;11.03;78.72
72110;BME280;59983;52.010;5.420;2023-05-01T02:48:17;101641.88;;;10.98;79.28
72110;BME280;59983;52.010;5.420;2023-05-01T02:50:46;101636.28;;;10.94;78.89
72110;BME280;59983;52.010;5.420;2023-05-01T02:53:15;101629.38;;;11.05;78.50
72110;BME280;59983;52.010;5.420;2023-05-01T02:55:42;101633.34;;;11.08;78.32
72110;BME280;59983;52.010;5.420;2023-05-01T02:58:14;101626.31;;;11.07;77.92
72110;BME280;59983;52.010;5.420;2023-05-01T03:00:40;101620.72;;;11.03;78.11
72110;BME280;59983;52.010;5.420;2023-05-01T03:03:07;101624.91;;;11.01;78.71
72110;BME280;59983;52.010;5.420;2023-05-01T03:05:34;101620.28;;;11.01;77.97
72110;BME280;59983;52.010;5.420;2023-05-01T03:08:00;101613.72;;;11.02;77.75
72110;BME280;59983;52.010;5.420;2023-05-01T03:10:27;101621.56;;;10.95;78.07
72110;BME280;59983;52.010;5.420;2023-05-01T03:12:53;101612.47;;;11.00;78.47
72110;BME280;59983;52.010;5.420;2023-05-01T03:15:19;101611.66;;;10.99;78.55
72110;BME280;59983;52.010;5.420;2023-05-01T03:17:46;101605.44;;;10.99;78.29
72110;BME280;59983;52.010;5.420;2023-05-01T03:20:13;101597.63;;;10.97;78.54
72110;BME280;59983;52.010;5.420;2023-05-01T03:22:39;101604.25;;;11.09;77.86
72110;BME280;59983;52.010;5.420;2023-05-01T03:25:06;101600.16;;;11.02;77.90
72110;BME280;59983;52.010;5.420;2023-05-01T03:27:33;101591.66;;;11.04;77.96
72110;BME280;59983;52.010;5.420;2023-05-01T03:30:00;101593.47;;;11.00;78.50
72110;BME280;59983;52.010;5.420;2023-05-01T03:32:26;101593.91;;;11.02;78.12
72110;BME280;59983;52.010;5.420;2023-05-01T03:34:54;101592.34;;;11.01;78.23
72110;BME280;59983;52.010;5.420;2023-05-01T03:37:21;101590.75;;;11.00;78.04
72110;BME280;59983;52.010;5.420;2023-05-01T03:39:47;101593.59;;;11.03;78.00
72110;BME280;59983;52.010;5.420;2023-05-01T03:42:14;101582.22;;;11.10;77.89
72110;BME280;59983;52.010;5.420;2023-05-01T03:44:41;101584.00;;;11.06;77.86
72110;BME280;59983;52.010;5.420;2023-05-01T03:47:07;101581.75;;;11.08;77.39
72110;BME280;59983;52.010;5.420;2023-05-01T03:49:35;101578.44;;;11.02;77.98
72110;BME280;59983;52.010;5.420;2023-05-01T03:52:01;101574.00;;;10.98;78.61
72110;BME280;59983;52.010;5.420;2023-05-01T03:54:28;101571.88;;;11.03;78.30
72110;BME280;59983;52.010;5.420;2023-05-01T03:56:55;101570.78;;;11.04;78.09
72110;BME280;59983;52.010;5.420;2023-05-01T03:59:21;101564.56;;;10.95;78.33
72110;BME280;59983;52.010;5.420;2023-05-01T04:01:48;101569.09;;;10.91;78.81
72110;BME280;59983;52.010;5.420;2023-05-01T04:04:14;101565.56;;;10.91;79.00
72110;BME280;59983;52.010;5.420;2023-05-01T04:06:41;101561.59;;;10.88;79.33
72110;BME280;59983;52.010;5.420;2023-05-01T04:09:07;101560.47;;;10.89;79.09
72110;BME280;59983;52.010;5.420;2023-05-01T04:11:34;101567.44;;;10.99;78.75
72110;BME280;59983;52.010;5.420;2023-05-01T04:14:00;101560.75;;;10.96;78.27
72110;BME280;59983;52.010;5.420;2023-05-01T04:16:27;101558.56;;;10.90;78.45
72110;BME280;59983;52.010;5.420;2023-05-01T04:18:54;101567.44;;;10.99;78.38
72110;BME280;59983;52.010;5.420;2023-05-01T04:21:20;101564.28;;;10.97;78.25
72110;BME280;59983;52.010;5.420;2023-05-01T04:23:47;101566.03;;;10.93;78.88
72110;BME280;59983;52.010;5.420;2023-05-01T04:26:13;101567.44;;;10.99;78.27
72110;BME280;59983;52.010;5.420;2023-05-01T04:28:40;101558.97;;;11.00;77.52
72110;BME280;59983;52.010;5.420;2023-05-01T04:31:06;101555.47;;;11.00;78.09
72110;BME280;59983;52.010;5.420;2023-05-01T04:33:33;101559.75;;;11.01;78.23
72110;BME280;59983;52.010;5.420;2023-05-01T04:35:59;101553.25;;;10.93;78.65
72110;BME280;59983;52.010;5.420;2023-05-01T04:38:26;101553.13;;;10.90;79.21
72110;BME280;59983;52.010;5.420;2023-05-01T04:40:54;101558.22;;;10.91;78.55
72110;BME280;59983;52.010;5.420;2023-05-01T04:43:21;101558.41;;;10.86;79.10
72110;BME280;59983;52.010;5.420;2023-05-01T04:45:47;101560.66;;;10.84;79.19
72110;BME280;59983;52.010;5.420;2023-05-01T04:48:14;101562.75;;;10.87;79.57
72110;BME280;59983;52.010;5.420;2023-05-01T04:50:40;101551.66;;;10.92;79.25
72110;BME280;59983;52.010;5.420;2023-05-01T04:53:07;101552.63;;;10.96;79.63
72110;BME280;59983;52.010;5.420;2023-05-01T04:55:34;101555.19;;;10.93;79.38
72110;BME280;59983;52.010;5.420;2023-05-01T04:58:01;101551.66;;;10.92;79.50
72110;BME280;59983;52.010;5.420;2023-05-01T05:00:30;101553.25;;;10.93;79.65
72110;BME280;59983;52.010;5.420;2023-05-01T05:02:56;101553.94;;;10.90;79.92
72110;BME280;59983;52.010;5.420;2023-05-01T05:05:23;101549.16;;;10.87;79.86
72110;BME280;59983;52.010;5.420;2023-05-01T05:07:49;101549.63;;;10.89;79.98
72110;BME280;59983;52.010;5.420;2023-05-01T05:10:16;101550.09;;;10.91;80.53
72110;BME280;59983;52.010;5.420;2023-05-01T05:12:43;101546.91;;;10.89;80.15
72110;BME280;59983;52.010;5.420;2023-05-01T05:15:09;101546.84;;;10.98;79.80
72110;BME280;59983;52.010;5.420;2023-05-01T05:17:36;101555.72;;;11.07;79.26
72110;BME280;59983;52.010;5.420;2023-05-01T05:20:03;101550.09;;;11.12;78.81
72110;BME280;59983;52.010;5.420;2023-05-01T05:22:30;101549.44;;;11.15;78.76
72110;BME280;59983;52.010;5.420;2023-05-01T05:24:56;101559.28;;;11.20;78.14
72110;BME280;59983;52.010;5.420;2023-05-01T05:27:29;101555.94;;;11.23;77.88
72110;BME280;59983;52.010;5.420;2023-05-01T05:30:04;101556.41;;;11.25;77.61
72110;BME280;59983;52.010;5.420;2023-05-01T05:32:31;101554.25;;;11.30;77.65
72110;BME280;59983;52.010;5.420;2023-05-01T05:34:58;101561.50;;;11.26;78.12
72110;BME280;59983;52.010;5.420;2023-05-01T05:37:24;101559.28;;;11.20;78.60
72110;BME280;59983;52.010;5.420;2023-05-01T05:39:51;101557.97;;;11.26;78.96
72110;BME280;59983;52.010;5.420;2023-05-01T05:42:18;101558.16;;;11.21;78.85
72110;BME280;59983;52.010;5.420;2023-05-01T05:44:45;101549.44;;;11.15;78.48
72110;BME280;59983;52.010;5.420;2023-05-01T05:47:12;101552.16;;;11.15;78.38
72110;BME280;59983;52.010;5.420;2023-05-01T05:49:38;101549.16;;;11.29;77.73
72110;BME280;59983;52.010;5.420;2023-05-01T05:52:05;101549.66;;;11.31;77.65
72110;BME280;59983;52.010;5.420;2023-05-01T05:54:31;101551.69;;;11.34;78.43
72110;BME280;59983;52.010;5.420;2023-05-01T05:56:58;101543.53;;;11.34;78.45
72110;BME280;59983;52.010;5.420;2023-05-01T05:59:24;101551.97;;;11.41;78.25
72110;BME280;59983;52.010;5.420;2023-05-01T06:01:51;101541.44;;;11.40;78.83
72110;BME280;59983;52.010;5.420;2023-05-01T06:04:17;101540.41;;;11.44;78.88
72110;BME280;59983;52.010;5.420;2023-05-01T06:06:44;101543.72;;;11.50;77.93
72110;BME280;59983;52.010;5.420;2023-05-01T06:09:10;101542.19;;;11.61;77.36
72110;BME280;59983;52.010;5.420;2023-05-01T06:11:38;101543.88;;;11.66;77.71
72110;BME280;59983;52.010;5.420;2023-05-01T06:14:05;101541.66;;;11.68;78.27
72110;BME280;59983;52.010;5.420;2023-05-01T06:16:32;101539.03;;;11.71;78.02
72110;BME280;59983;52.010;5.420;2023-05-01T06:18:59;101537.19;;;11.84;77.63
72110;BME280;59983;52.010;5.420;2023-05-01T06:21:26;101530.94;;;11.83;77.20
72110;BME280;59983;52.010;5.420;2023-05-01T06:23:52;101531.88;;;11.87;77.09
72110;BME280;59983;52.010;5.420;2023-05-01T06:26:19;101539.00;;;11.92;76.72
72110;BME280;59983;52.010;5.420;2023-05-01T06:28:46;101534.59;;;12.00;76.63
72110;BME280;59983;52.010;5.420;2023-05-01T06:31:13;101529.84;;;12.09;75.77
72110;BME280;59983;52.010;5.420;2023-05-01T06:33:39;101529.19;;;12.12;75.35
72110;BME280;59983;52.010;5.420;2023-05-01T06:36:06;101532.81;;;12.16;76.57
72110;BME280;59983;52.010;5.420;2023-05-01T06:38:32;101532.25;;;12.23;76.48
72110;BME280;59983;52.010;5.420;2023-05-01T06:40:59;101534.19;;;12.34;76.57
72110;BME280;59983;52.010;5.420;2023-05-01T06:43:26;101528.97;;;12.41;76.09
72110;BME280;59983;52.010;5.420;2023-05-01T06:45:56;101528.28;;;12.44;76.75
72110;BME280;59983;52.010;5.420;2023-05-01T06:48:22;101528.88;;;12.50;76.23
72110;BME280;59983;52.010;5.420;2023-05-01T06:50:49;101522.97;;;12.60;75.62
72110;BME280;59983;52.010;5.420;2023-05-01T06:53:16;101523.19;;;12.67;74.96
72110;BME280;59983;52.010;5.420;2023-05-01T06:55:42;101517.97;;;12.74;75.02
72110;BME280;59983;52.010;5.420;2023-05-01T06:58:08;101520.69;;;12.74;76.59
72110;BME280;59983;52.010;5.420;2023-05-01T07:00:49;101523.41;;;12.74;74.60
72110;BME280;59983;52.010;5.420;2023-05-01T07:03:16;101523.41;;;12.74;74.85
72110;BME280;59983;52.010;5.420;2023-05-01T07:05:43;101518.63;;;12.84;75.06
72110;BME280;59983;52.010;5.420;2023-05-01T07:08:09;101519.06;;;12.86;74.71
72110;BME280;59983;52.010;5.420;2023-05-01T07:10:36;101523.13;;;13.04;75.32
72110;BME280;59983;52.010;5.420;2023-05-01T07:13:06;101517.03;;;13.35;76.50
72110;BME280;59983;52.010;5.420;2023-05-01T07:15:33;101518.91;;;13.47;73.46
72110;BME280;59983;52.010;5.420;2023-05-01T07:18:00;101515.31;;;13.58;72.65
72110;BME280;59983;52.010;5.420;2023-05-01T07:20:28;101514.56;;;13.74;72.37
72110;BME280;59983;52.010;5.420;2023-05-01T07:22:55;101517.22;;;13.86;71.81
72110;BME280;59983;52.010;5.420;2023-05-01T07:25:22;101511.53;;;14.07;71.20
72110;BME280;59983;52.010;5.420;2023-05-01T07:27:50;101506.06;;;14.23;69.98
72110;BME280;59983;52.010;5.420;2023-05-01T07:30:16;101504.66;;;14.13;69.06
72110;BME280;59983;52.010;5.420;2023-05-01T07:32:43;101519.72;;;14.07;70.46
72110;BME280;59983;52.010;5.420;2023-05-01T07:35:10;101506.06;;;14.07;70.33
72110;BME280;59983;52.010;5.420;2023-05-01T07:37:37;101515.13;;;14.11;69.38
72110;BME280;59983;52.010;5.420;2023-05-01T07:40:04;101513.38;;;14.18;68.18
72110;BME280;59983;52.010;5.420;2023-05-01T07:42:30;101520.16;;;14.25;67.91
72110;BME280;59983;52.010;5.420;2023-05-01T07:44:57;101519.31;;;14.40;67.31
72110;BME280;59983;52.010;5.420;2023-05-01T07:47:23;101526.22;;;14.50;66.80
72110;BME280;59983;52.010;5.420;2023-05-01T07:49:50;101522.94;;;14.44;67.87
72110;BME280;59983;52.010;5.420;2023-05-01T07:52:16;101518.03;;;14.50;67.22
72110;BME280;59983;52.010;5.420;2023-05-01T07:54:49;101516.91;;;14.51;67.56
72110;BME280;59983;52.010;5.420;2023-05-01T07:57:16;101513.00;;;14.52;68.05
72110;BME280;59983;52.010;5.420;2023-05-01T07:59:42;101519.69;;;14.54;67.47
72110;BME280;59983;52.010;5.420;2023-05-01T08:02:09;101521.81;;;14.61;67.51
72110;BME280;59983;52.010;5.420;2023-05-01T08:04:35;101525.69;;;14.60;68.19
72110;BME280;59983;52.010;5.420;2023-05-01T08:07:02;101520.72;;;14.65;69.24
72110;BME280;59983;52.010;5.420;2023-05-01T08:09:28;101529.28;;;14.64;70.01
72110;BME280;59983;52.010;5.420;2023-05-01T08:11:55;101518.53;;;14.55;69.60
72110;BME280;59983;52.010;5.420;2023-05-01T08:14:21;101524.38;;;14.54;70.57
72110;BME280;59983;52.010;5.420;2023-05-01T08:16:48;101524.28;;;14.50;70.81
72110;BME280;59983;52.010;5.420;2023-05-01T08:19:19;101523.31;;;14.42;71.27
72110;BME280;59983;52.010;5.420;2023-05-01T08:21:46;101518.28;;;14.44;70.48
72110;BME280;59983;52.010;5.420;2023-05-01T08:24:12;101529.28;;;14.48;70.39
72110;BME280;59983;52.010;5.420;2023-05-01T08:26:39;101517.84;;;14.42;70.46
72110;BME280;59983;52.010;5.420;2023-05-01T08:29:06;101519.44;;;14.43;71.12
72110;BME280;59983;52.010;5.420;2023-05-01T08:31:32;101521.09;;;14.48;71.49
72110;BME280;59983;52.010;5.420;2023-05-01T08:34:03;101516.53;;;14.52;71.36
72110;BME280;59983;52.010;5.420;2023-05-01T08:36:29;101513.88;;;14.56;71.23
72110;BME280;59983;52.010;5.420;2023-05-01T08:38:57;101517.41;;;14.56;70.57
72110;BME280;59983;52.010;5.420;2023-05-01T08:41:26;101513.97;;;14.59;70.18
72110;BME280;59983;52.010;5.420;2023-05-01T08:43:55;101517.94;;;14.62;70.64
72110;BME280;59983;52.010;5.420;2023-05-01T08:46:49;101519.50;;;14.63;70.15
72110;BME280;59983;52.010;5.420;2023-05-01T08:49:20;101519.50;;;14.63;70.67
72110;BME280;59983;52.010;5.420;2023-05-01T08:51:49;101524.25;;;14.66;71.81
72110;BME280;59983;52.010;5.420;2023-05-01T08:54:19;101518.34;;;14.64;69.74
72110;BME280;59983;52.010;5.420;2023-05-01T08:56:46;101515.13;;;14.58;69.96
72110;BME280;59983;52.010;5.420;2023-05-01T08:59:13;101521.38;;;14.59;70.57
72110;BME280;59983;52.010;5.420;2023-05-01T09:01:41;101518.78;;;14.66;71.18
72110;BME280;59983;52.010;5.420;2023-05-01T09:04:09;101519.66;;;14.70;70.69
72110;BME280;59983;52.010;5.420;2023-05-01T09:06:37;101514.38;;;14.77;70.60
72110;BME280;59983;52.010;5.420;2023-05-01T09:09:04;101510.13;;;14.80;70.86
72110;BME280;59983;52.010;5.420;2023-05-01T09:11:31;101516.44;;;14.84;71.11
72110;BME280;59983;52.010;5.420;2023-05-01T09:13:59;101520.84;;;14.88;70.00
72110;BME280;59983;52.010;5.420;2023-05-01T09:16:28;101523.81;;;14.99;70.45
72110;BME280;59983;52.010;5.420;2023-05-01T09:18:54;101516.28;;;15.12;70.80
72110;BME280;59983;52.010;5.420;2023-05-01T09:21:22;101527.56;;;15.29;70.83
72110;BME280;59983;52.010;5.420;2023-05-01T09:23:50;101523.16;;;15.44;70.61
72110;BME280;59983;52.010;5.420;2023-05-01T09:26:17;101519.50;;;15.56;69.69
72110;BME280;59983;52.010;5.420;2023-05-01T09:28:44;101518.78;;;15.59;69.81
72110;BME280;59983;52.010;5.420;2023-05-01T09:31:23;101527.75;;;15.59;67.26
72110;BME280;59983;52.010;5.420;2023-05-01T09:34:02;101537.84;;;15.75;67.01
72110;BME280;59983;52.010;5.420;2023-05-01T09:36:33;101540.06;;;15.69;66.11
72110;BME280;59983;52.010;5.420;2023-05-01T09:39:00;101534.88;;;15.83;66.55
72110;BME280;59983;52.010;5.420;2023-05-01T09:41:27;101535.81;;;15.91;65.53
72110;BME280;59983;52.010;5.420;2023-05-01T09:43:55;101535.41;;;16.15;66.52
72110;BME280;59983;52.010;5.420;2023-05-01T09:46:24;101524.28;;;16.28;65.06
72110;BME280;59983;52.010;5.420;2023-05-01T09:48:55;101534.91;;;16.33;63.80
72110;BME280;59983;52.010;5.420;2023-05-01T09:53:50;101539.47;;;16.48;60.84
72110;BME280;59983;52.010;5.420;2023-05-01T09:56:18;101534.25;;;16.66;60.57
72110;BME280;59983;52.010;5.420;2023-05-01T09:58:45;101534.28;;;16.92;61.37
72110;BME280;59983;52.010;5.420;2023-05-01T10:01:12;101538.00;;;17.07;58.11
72110;BME280;59983;52.010;5.420;2023-05-01T10:03:39;101529.44;;;17.12;57.62
72110;BME280;59983;52.010;5.420;2023-05-01T10:06:08;101523.72;;;17.24;56.34
72110;BME280;59983;52.010;5.420;2023-05-01T10:08:48;101524.88;;;17.23;57.90
72110;BME280;59983;52.010;5.420;2023-05-01T10:11:14;101528.81;;;17.26;58.17
72110;BME280;59983;52.010;5.420;2023-05-01T10:13:41;101512.53;;;17.40;55.76
72110;BME280;59983;52.010;5.420;2023-05-01T10:16:27;101519.94;;;17.36;56.47
72110;BME280;59983;52.010;5.420;2023-05-01T10:18:57;101519.72;;;17.52;52.95
72110;BME280;59983;52.010;5.420;2023-05-01T10:21:26;101528.28;;;17.47;51.35
72110;BME280;59983;52.010;5.420;2023-05-01T10:23:54;101527.78;;;17.38;51.32
72110;BME280;59983;52.010;5.420;2023-05-01T10:26:20;101530.78;;;17.25;50.09
72110;BME280;59983;52.010;5.420;2023-05-01T10:28:48;101529.25;;;17.28;51.24
72110;BME280;59983;52.010;5.420;2023-05-01T10:31:15;101519.97;;;17.40;51.79
72110;BME280;59983;52.010;5.420;2023-05-01T10:33:43;101530.22;;;17.46;52.00
72110;BME280;59983;52.010;5.420;2023-05-01T10:36:14;101529.03;;;17.44;51.21
72110;BME280;59983;52.010;5.420;2023-05-01T10:38:43;101532.25;;;17.49;51.24
72110;BME280;59983;52.010;5.420;2023-05-01T10:41:14;101535.00;;;17.53;50.97
72110;BME280;59983;52.010;5.420;2023-05-01T10:43:42;101532.25;;;17.49;49.30
72110;BME280;59983;52.010;5.420;2023-05-01T10:51:26;101543.78;;;17.32;49.86
72110;BME280;59983;52.010;5.420;2023-05-01T10:56:39;101556.47;;;17.14;48.56
72110;BME280;59983;52.010;5.420;2023-05-01T10:59:05;101547.94;;;17.19;49.35
72110;BME280;59983;52.010;5.420;2023-05-01T11:01:39;101548.16;;;17.37;48.52
72110;BME280;59983;52.010;5.420;2023-05-01T11:09:52;101549.88;;;17.18;48.45
72110;BME280;59983;52.010;5.420;2023-05-01T11:15:24;101546.06;;;17.26;47.63
72110;BME280;59983;52.010;5.420;2023-05-01T11:17:51;101552.47;;;17.38;46.52
72110;BME280;59983;52.010;5.420;2023-05-01T11:22:55;101554.63;;;17.55;45.96
72110;BME280;59983;52.010;5.420;2023-05-01T11:25:26;101538.53;;;17.53;46.09
72110;BME280;59983;52.010;5.420;2023-05-01T11:27:55;101535.81;;;17.57;46.92
72110;BME280;59983;52.010;5.420;2023-05-01T11:30:22;101536.09;;;17.78;46.67
72110;BME280;59983;52.010;5.420;2023-05-01T11:32:49;101537.50;;;18.02;46.04
72110;BME280;59983;52.010;5.420;2023-05-01T11:35:18;101536.97;;;18.30;46.66
72110;BME280;59983;52.010;5.420;2023-05-01T11:37:46;101536.19;;;18.37;45.79
72110;BME280;59983;52.010;5.420;2023-05-01T11:43:03;101529.69;;;18.59;47.26
72110;BME280;59983;52.010;5.420;2023-05-01T11:45:31;101536.06;;;18.71;45.63
72110;BME280;59983;52.010;5.420;2023-05-01T11:47:58;101538.47;;;18.76;45.96
72110;BME280;59983;52.010;5.420;2023-05-01T11:50:36;101527.34;;;18.61;44.43
72110;BME280;59983;52.010;5.420;2023-05-01T11:53:09;101529.63;;;18.49;46.72
72110;BME280;59983;52.010;5.420;2023-05-01T11:55:43;101530.72;;;18.92;49.85
72110;BME280;59983;52.010;5.420;2023-05-01T11:58:10;101526.22;;;19.49;52.87
72110;BME280;59983;52.010;5.420;2023-05-01T12:00:39;101534.97;;;19.91;46.17
72110;BME280;59983;52.010;5.420;2023-05-01T12:03:09;101536.91;;;19.87;41.75
72110;BME280;59983;52.010;5.420;2023-05-01T12:05:41;101537.31;;;19.74;40.79
72110;BME280;59983;52.010;5.420;2023-05-01T12:10:37;101542.03;;;19.77;41.95
72110;BME280;59983;52.010;5.420;2023-05-01T12:13:06;101532.19;;;19.62;43.55
72110;BME280;59983;52.010;5.420;2023-05-01T12:15:34;101528.59;;;19.55;43.30
72110;BME280;59983;52.010;5.420;2023-05-01T12:18:03;101530.91;;;19.42;44.99
72110;BME280;59983;52.010;5.420;2023-05-01T12:20:37;101536.81;;;19.44;45.02
72110;BME280;59983;52.010;5.420;2023-05-01T12:23:05;101542.78;;;19.60;45.98
72110;BME280;59983;52.010;5.420;2023-05-01T12:25:32;101548.19;;;19.39;48.82
72110;BME280;59983;52.010;5.420;2023-05-01T12:28:08;101545.16;;;18.78;52.84
72110;BME280;59983;52.010;5.420;2023-05-01T12:30:37;101557.50;;;18.47;54.05
72110;BME280;59983;52.010;5.420;2023-05-01T12:33:22;101545.31;;;18.00;55.13
72110;BME280;59983;52.010;5.420;2023-05-01T12:35:49;101546.72;;;17.83;55.88
72110;BME280;59983;52.010;5.420;2023-05-01T12:38:18;101558.00;;;17.75;54.61
72110;BME280;59983;52.010;5.420;2023-05-01T12:40:54;101553.66;;;17.70;54.18
72110;BME280;59983;52.010;5.420;2023-05-01T12:43:29;101555.50;;;17.63;56.18
72110;BME280;59983;52.010;5.420;2023-05-01T12:45:56;101557.25;;;17.44;55.87
72110;BME280;59983;52.010;5.420;2023-05-01T12:48:24;101563.81;;;17.36;57.10
72110;BME280;59983;52.010;5.420;2023-05-01T12:50:50;101557.41;;;17.25;55.82
72110;BME280;59983;52.010;5.420;2023-05-01T12:53:24;101562.78;;;17.14;56.04
72110;BME280;59983;52.010;5.420;2023-05-01T12:55:53;101561.91;;;17.10;56.31
72110;BME280;59983;52.010;5.420;2023-05-01T12:58:21;101562.19;;;17.02;56.45
72110;BME280;59983;52.010;5.420;2023-05-01T13:00:49;101556.66;;;16.98;57.61
72110;BME280;59983;52.010;5.420;2023-05-01T13:03:24;101560.88;;;16.92;57.60
72110;BME280;59983;52.010;5.420;2023-05-01T13:05:54;101564.56;;;16.77;57.90
72110;BME280;59983;52.010;5.420;2023-05-01T13:10:57;101557.06;;;16.47;60.18
72110;BME280;59983;52.010;5.420;2023-05-01T13:13:29;101553.00;;;16.37;62.06
72110;BME280;59983;52.010;5.420;2023-05-01T13:16:08;101557.38;;;16.42;62.80
72110;BME280;59983;52.010;5.420;2023-05-01T13:18:48;101548.97;;;16.31;63.61
72110;BME280;59983;52.010;5.420;2023-05-01T13:21:21;101550.72;;;16.43;64.57
72110;BME280;59983;52.010;5.420;2023-05-01T13:26:27;101555.91;;;16.48;64.21
72110;BME280;59983;52.010;5.420;2023-05-01T13:28:54;101550.09;;;16.27;65.22
72110;BME280;59983;52.010;5.420;2023-05-01T13:31:22;101553.00;;;16.14;64.85
72110;BME280;59983;52.010;5.420;2023-05-01T13:33:51;101550.50;;;16.06;65.95
72110;BME280;59983;52.010;5.420;2023-05-01T13:36:18;101551.97;;;16.23;66.81
72110;BME280;59983;52.010;5.420;2023-05-01T13:38:54;101548.19;;;16.31;64.78